Flight Track Log - Related Links

Times and Time Zones

All times are in EDT time to prevent confusion due to time zone crossing. See the N85FD flight status page for this flight to view local times or setup timezone preferences in your user account.

Time Position Orientation Groundspeed Altitude Reporting Facility
EDT Latitude Longitude Course Direction KTS MPH feet Rate Location/Type
Sat 08:07:52 PM 43.3500 -89.4489 North 188 216 2,900  Level Chicago Center
Sat 08:08:53 PM 43.4000 -89.4556 354° North 186 214 4,200 1,317 Climbing Chicago Center
Sat 08:09:55 PM 43.4508 -89.4600 356° North 185 213 5,600 1,220 Climbing Chicago Center
Sat 08:10:56 PM 43.5039 -89.4658 355° North 186 214 6,700 134 Climbing Chicago Center
Sat 08:12:00 PM 43.4464 -89.5333 North  Level FlightAware Approximate
Sat 08:12:54 PM 43.6450 -89.4825 355° North 247 284 6,000  Level Minneapolis Center
Sat 08:13:00 PM 43.5003 -89.5500 North  Level FlightAware Approximate
Sat 08:13:55 PM 43.7158 -89.4903 355° North 249 287 6,000  Level Minneapolis Center
Sat 08:14:56 PM 43.7800 -89.4969 356° North 246 283 6,000  Level Minneapolis Center
Sat 08:15:57 PM 43.8497 -89.5053 355° North 243 280 6,000  Level Minneapolis Center
Sat 08:16:58 PM 43.9181 -89.5128 355° North 239 275 6,000  Level Minneapolis Center
Sat 08:17:59 PM 43.9842 -89.5211 355° North 241 277 6,000  Level Minneapolis Center
Sat 08:19:01 PM 44.0564 -89.5153 North 248 285 6,000  Level Minneapolis Center
Sat 08:20:02 PM 44.1300 -89.5058 North 252 290 6,000  Level Minneapolis Center
Sat 08:21:03 PM 44.1969 -89.4972 North 252 290 6,000  Level Minneapolis Center
Sat 08:22:04 PM 44.2692 -89.4853 North 252 290 6,000  Level Minneapolis Center
Sat 08:23:05 PM 44.3411 -89.4747 North 252 290 6,000  Level Minneapolis Center
Sat 08:24:07 PM 44.4083 -89.4658 North 251 289 6,000 -98 Level Minneapolis Center
Sat 08:25:08 PM 44.4806 -89.4561 North 251 289 5,800 -344 Descending Minneapolis Center
Sat 08:26:09 PM 44.5564 -89.4453 North 257 296 5,300 -393 Descending Minneapolis Center
Sat 08:27:10 PM 44.6342 -89.4353 North 263 303 5,000 -146 Descending Minneapolis Center
Sat 08:28:12 PM 44.7022 -89.4264 North 261 300 5,000 -244 Level Minneapolis Center
Sat 08:29:13 PM 44.7775 -89.4328 357° North 257 296 4,500 -590 Descending Minneapolis Center
Sat 08:30:14 PM 44.8528 -89.4550 348° North 262 302 3,800 -443 Descending Minneapolis Center
Sat 08:31:15 PM 44.9011 -89.5106 321° Northwest 239 275 3,600 -197 Descending Minneapolis Center

Login

Don't have an account? Register now (free) for customized features, flight alerts, and more!